createdAt,value
2023-05-04T00:07:48.411Z,54.81
2023-05-04T00:17:50.648Z,55.33
2023-05-04T00:27:52.769Z,57.26
2023-05-04T00:38:00.023Z,58.88
2023-05-04T00:48:05.629Z,66.19
2023-05-04T00:58:09.428Z,70.17
2023-05-04T01:08:17.252Z,71.11
2023-05-04T01:18:23.626Z,77.16
2023-05-04T01:28:35.893Z,78.61
2023-05-04T01:38:45.870Z,79.45
2023-05-04T01:48:50.466Z,79.92
2023-05-04T01:58:53.825Z,78.99
2023-05-04T02:08:55.935Z,76.66
2023-05-04T02:18:58.070Z,76.12
2023-05-04T02:29:03.735Z,76.05
2023-05-04T02:39:08.749Z,77.39
2023-05-04T02:49:13.211Z,78.57
2023-05-04T02:59:20.240Z,79.92
2023-05-04T03:09:24.467Z,79.50
2023-05-04T03:19:28.805Z,75.62
2023-05-04T03:29:31.776Z,73.74
2023-05-04T03:39:34.281Z,72.22
2023-05-04T03:49:36.577Z,70.63
2023-05-04T03:59:43.791Z,69.70
2023-05-04T04:09:48.339Z,69.20
2023-05-04T04:19:52.757Z,67.46
2023-05-04T04:29:59.141Z,66.10
2023-05-04T04:40:04.422Z,61.62
2023-05-04T04:50:11.834Z,54.93
2023-05-04T05:00:17.288Z,52.00
2023-05-04T05:10:21.787Z,50.04
2023-05-04T05:20:26.501Z,45.46
2023-05-04T05:30:29.105Z,44.63
2023-05-04T05:40:32.313Z,44.69
2023-05-04T05:50:37.524Z,43.18
2023-05-04T06:00:41.954Z,40.97
2023-05-04T06:10:44.072Z,39.74
2023-05-04T06:20:48.383Z,37.93
2023-05-04T06:30:51.823Z,37.70
2023-05-04T06:41:00.291Z,38.02
2023-05-04T06:51:07.349Z,37.36
2023-05-04T07:01:10.230Z,35.57
2023-05-04T07:11:19.097Z,36.33
2023-05-04T07:21:28.131Z,33.10
2023-05-04T07:31:35.345Z,34.40
2023-05-04T07:41:41.153Z,32.60
2023-05-04T07:51:43.420Z,32.13
2023-05-04T08:01:51.088Z,30.78
2023-05-04T08:11:56.146Z,31.42
2023-05-04T08:21:58.559Z,30.32
2023-05-04T08:32:08.339Z,30.14
2023-05-04T08:42:14.169Z,29.23
2023-05-04T08:52:21.724Z,29.80
2023-05-04T09:02:29.545Z,30.21
2023-05-04T09:12:40.356Z,30.52
2023-05-04T09:22:42.786Z,30.67
2023-05-04T09:32:51.549Z,30.99
2023-05-04T09:42:57.686Z,30.38
2023-05-04T09:52:59.947Z,30.43
2023-05-04T10:03:05.211Z,29.14
2023-05-04T10:13:09.918Z,30.11
2023-05-04T10:23:26.465Z,29.92
2023-05-04T10:33:43.680Z,30.35
2023-05-04T10:43:53.840Z,30.53
2023-05-04T10:54:01.911Z,30.27
2023-05-04T11:04:04.260Z,30.13
2023-05-04T11:14:22.063Z,30.49
2023-05-04T11:24:26.466Z,30.59
2023-05-04T11:34:32.580Z,31.04
2023-05-04T11:44:41.020Z,30.89
2023-05-04T11:54:43.175Z,30.53
2023-05-04T12:04:45.390Z,29.97
2023-05-04T12:14:53.392Z,30.16
2023-05-04T12:24:59.718Z,30.06
2023-05-04T12:35:05.100Z,30.31
2023-05-04T12:45:10.514Z,29.78
2023-05-04T12:55:15.084Z,29.85
2023-05-04T13:05:21.093Z,29.66
2023-05-04T13:15:23.893Z,29.55
2023-05-04T13:25:26.089Z,30.32
2023-05-04T13:35:29.157Z,29.82
2023-05-04T13:45:33.957Z,29.88
2023-05-04T13:55:41.045Z,29.44
2023-05-04T14:05:43.516Z,28.99
2023-05-04T14:15:47.784Z,29.38
2023-05-04T14:25:53.934Z,29.42
2023-05-04T14:35:59.334Z,29.19
2023-05-04T14:46:05.790Z,29.24
2023-05-04T14:56:10.153Z,29.08
2023-05-04T15:06:17.589Z,29.06
2023-05-04T15:16:23.550Z,29.05
2023-05-04T15:26:26.600Z,28.90
2023-05-04T15:36:28.987Z,29.13
2023-05-04T15:46:33.615Z,29.59
2023-05-04T15:56:36.361Z,29.56
2023-05-04T16:06:42.483Z,29.26
2023-05-04T16:16:44.838Z,29.42
2023-05-04T16:26:54.392Z,29.65
2023-05-04T16:36:58.996Z,29.73
2023-05-04T16:47:07.246Z,29.91
2023-05-04T16:57:09.386Z,29.72
2023-05-04T17:07:15.841Z,30.17
2023-05-04T17:17:21.246Z,31.12
2023-05-04T17:27:23.454Z,31.78
2023-05-04T17:37:29.717Z,32.33
2023-05-04T17:47:31.871Z,32.44
2023-05-04T17:57:34.080Z,32.72
2023-05-04T18:07:38.983Z,33.01
2023-05-04T18:17:46.187Z,33.30
2023-05-04T18:27:50.845Z,33.53
2023-05-04T18:37:53.838Z,34.17
2023-05-04T18:47:58.508Z,34.65
2023-05-04T18:58:04.839Z,35.01
2023-05-04T19:08:11.277Z,36.00
2023-05-04T19:18:15.570Z,35.92
2023-05-04T19:28:18.055Z,36.16
2023-05-04T19:38:23.327Z,36.19
2023-05-04T19:48:30.427Z,36.34
2023-05-04T19:58:32.671Z,36.63
2023-05-04T20:08:39.943Z,37.26
2023-05-04T20:18:42.239Z,37.11
2023-05-04T20:28:45.775Z,37.75
2023-05-04T20:38:48.021Z,38.79
2023-05-04T20:48:58.961Z,38.74
2023-05-04T20:59:05.981Z,39.16
2023-05-04T21:09:08.215Z,39.22
2023-05-04T21:19:12.869Z,39.29
2023-05-04T21:29:17.959Z,39.21
2023-05-04T21:39:26.627Z,39.65
2023-05-04T21:49:31.839Z,39.72
2023-05-04T21:59:37.862Z,40.04
2023-05-04T22:09:47.073Z,39.58
2023-05-04T22:19:54.434Z,40.12
2023-05-04T22:29:56.917Z,40.49
2023-05-04T22:40:00.621Z,40.76
2023-05-04T22:50:03.432Z,40.78
2023-05-04T23:00:08.217Z,40.90
2023-05-04T23:10:15.266Z,40.71
2023-05-04T23:20:24.537Z,40.07
2023-05-04T23:30:28.980Z,39.50
2023-05-04T23:40:31.104Z,39.82
2023-05-04T23:50:35.976Z,40.19
